createdAt,value
2019-05-06T00:00:03.000Z,100785
2019-05-06T00:02:19.000Z,100784
2019-05-06T00:04:19.000Z,100782
2019-05-06T00:06:18.000Z,100779
2019-05-06T00:08:18.000Z,100781
2019-05-06T00:10:20.000Z,100775
2019-05-06T00:12:18.000Z,100783
2019-05-06T00:14:18.000Z,100780
2019-05-06T00:16:18.000Z,100778
2019-05-06T00:17:18.000Z,100776
2019-05-06T00:19:19.000Z,100776
2019-05-06T00:21:19.000Z,100784
2019-05-06T00:23:18.000Z,100780
2019-05-06T00:25:19.000Z,100782
2019-05-06T00:27:19.000Z,100791
2019-05-06T00:29:18.000Z,100781
2019-05-06T00:31:12.000Z,100784
2019-05-06T00:33:03.000Z,100781
2019-05-06T00:35:19.000Z,100780
2019-05-06T00:37:18.000Z,100768
2019-05-06T00:39:19.000Z,100776
2019-05-06T00:41:18.000Z,100768
2019-05-06T00:43:19.000Z,100775
2019-05-06T00:45:03.000Z,100770
2019-05-06T00:46:19.000Z,100770
2019-05-06T00:48:19.000Z,100770
2019-05-06T00:50:19.000Z,100771
2019-05-06T00:52:04.000Z,100765
2019-05-06T00:54:19.000Z,100778
2019-05-06T00:56:19.000Z,100778
2019-05-06T00:58:18.000Z,100778
2019-05-06T01:00:19.000Z,100777
2019-05-06T01:02:19.000Z,100778
2019-05-06T01:04:19.000Z,100770
2019-05-06T01:06:18.000Z,100773
2019-05-06T01:08:19.000Z,100769
2019-05-06T01:10:33.000Z,100776
2019-05-06T01:12:33.000Z,100777
2019-05-06T01:14:03.000Z,100778
2019-05-06T01:15:33.000Z,100777
2019-05-06T01:17:18.000Z,100781
2019-05-06T01:19:19.000Z,100777
2019-05-06T01:21:33.000Z,100777
2019-05-06T01:23:33.000Z,100778
2019-05-06T01:25:18.000Z,100775
2019-05-06T01:27:18.000Z,100776
2019-05-06T01:29:18.000Z,100772
2019-05-06T01:31:19.000Z,100781
2019-05-06T01:32:33.000Z,100780
2019-05-06T01:34:03.000Z,100771
2019-05-06T01:35:19.000Z,100777
2019-05-06T01:37:33.000Z,100777
2019-05-06T01:39:03.000Z,100775
2019-05-06T01:40:18.000Z,100775
2019-05-06T01:42:19.000Z,100775
2019-05-06T01:43:33.000Z,100775
2019-05-06T01:45:03.000Z,100780
2019-05-06T01:46:19.000Z,100776
2019-05-06T01:47:33.000Z,100785
2019-05-06T01:49:03.000Z,100781
2019-05-06T01:50:03.000Z,100782
2019-05-06T01:51:33.000Z,100784
2019-05-06T01:53:03.000Z,100780
2019-05-06T01:54:18.000Z,100786
2019-05-06T01:56:33.000Z,100781
2019-05-06T01:58:19.000Z,100780
2019-05-06T02:00:19.000Z,100784
2019-05-06T02:02:19.000Z,100779
2019-05-06T02:04:19.000Z,100781
2019-05-06T02:06:19.000Z,100786
2019-05-06T02:08:18.000Z,100776
2019-05-06T02:10:18.000Z,100780
2019-05-06T02:11:18.000Z,100775
2019-05-06T02:13:18.000Z,100778
2019-05-06T02:15:18.000Z,100781
2019-05-06T02:17:18.000Z,100784
2019-05-06T02:19:03.000Z,100773
2019-05-06T02:21:20.000Z,100776
2019-05-06T02:23:03.000Z,100777
2019-05-06T02:24:03.000Z,100776
2019-05-06T02:25:03.000Z,100776
2019-05-06T02:27:19.000Z,100784
2019-05-06T02:29:18.000Z,100786
2019-05-06T02:31:20.000Z,100781
2019-05-06T02:33:19.000Z,100783
2019-05-06T02:35:19.000Z,100783
2019-05-06T02:37:21.000Z,100774
2019-05-06T02:39:18.000Z,100778
2019-05-06T02:41:18.000Z,100777
2019-05-06T02:43:33.000Z,100780
2019-05-06T02:45:03.000Z,100771
2019-05-06T02:46:03.000Z,100780
2019-05-06T02:47:33.000Z,100787
2019-05-06T02:49:18.000Z,100785
2019-05-06T02:51:18.000Z,100776
2019-05-06T02:53:33.000Z,100775
2019-05-06T02:55:03.000Z,100775
2019-05-06T02:56:04.000Z,100778
2019-05-06T02:58:33.000Z,100782
2019-05-06T03:00:20.000Z,100783
2019-05-06T03:02:18.000Z,100782
2019-05-06T03:04:03.000Z,100773
2019-05-06T03:05:19.000Z,100773
2019-05-06T03:07:18.000Z,100779
2019-05-06T03:09:33.000Z,100776
2019-05-06T03:11:19.000Z,100774
2019-05-06T03:13:33.000Z,100777
2019-05-06T03:14:33.000Z,100780
2019-05-06T03:16:03.000Z,100780
2019-05-06T03:17:18.000Z,100777
2019-05-06T03:18:33.000Z,100773
2019-05-06T03:20:19.000Z,100775
2019-05-06T03:22:33.000Z,100772
2019-05-06T03:24:03.000Z,100764
2019-05-06T03:25:21.000Z,100764
2019-05-06T03:27:03.000Z,100764
2019-05-06T03:28:19.000Z,100763
2019-05-06T03:29:33.000Z,100755
2019-05-06T03:31:07.000Z,100759
2019-05-06T03:33:03.000Z,100764
2019-05-06T03:34:16.000Z,100760
2019-05-06T03:36:14.000Z,100763
2019-05-06T03:38:18.000Z,100766
2019-05-06T03:40:33.000Z,100766
2019-05-06T03:42:03.000Z,100765
2019-05-06T03:43:33.000Z,100761
2019-05-06T03:44:33.000Z,100760
2019-05-06T03:46:19.000Z,100764
2019-05-06T03:47:20.000Z,100761
2019-05-06T03:48:20.000Z,100765
2019-05-06T03:50:03.000Z,100765
2019-05-06T03:51:19.000Z,100764
2019-05-06T03:52:33.000Z,100764
2019-05-06T03:53:33.000Z,100762
2019-05-06T03:54:33.000Z,100761
2019-05-06T03:56:18.000Z,100765
2019-05-06T03:57:33.000Z,100764
2019-05-06T03:59:18.000Z,100762
2019-05-06T04:01:18.000Z,100765
2019-05-06T04:03:33.000Z,100766
2019-05-06T04:05:18.000Z,100762
2019-05-06T04:07:33.000Z,100761
2019-05-06T04:09:03.000Z,100760
2019-05-06T04:10:03.000Z,100760
2019-05-06T04:11:33.000Z,100759
2019-05-06T04:13:03.000Z,100765
2019-05-06T04:14:18.000Z,100762
2019-05-06T04:16:18.000Z,100768
2019-05-06T04:17:33.000Z,100772
2019-05-06T04:19:18.000Z,100763
2019-05-06T04:21:04.000Z,100765
2019-05-06T04:23:03.000Z,100769
2019-05-06T04:25:18.000Z,100773
2019-05-06T04:26:33.000Z,100769
2019-05-06T04:28:33.000Z,100769
2019-05-06T04:30:03.000Z,100769
2019-05-06T04:31:33.000Z,100766
2019-05-06T04:32:33.000Z,100772
2019-05-06T04:34:03.000Z,100772
2019-05-06T04:35:04.000Z,100760
2019-05-06T04:37:33.000Z,100771
2019-05-06T04:38:33.000Z,100769
2019-05-06T04:40:19.000Z,100771
2019-05-06T04:41:33.000Z,100772
2019-05-06T04:43:33.000Z,100771
2019-05-06T04:44:33.000Z,100774
2019-05-06T04:46:33.000Z,100770
2019-05-06T04:48:33.000Z,100773
2019-05-06T04:50:19.000Z,100770
2019-05-06T04:51:33.000Z,100767
2019-05-06T04:53:03.000Z,100768
2019-05-06T04:54:18.000Z,100772
2019-05-06T04:56:18.000Z,100772
2019-05-06T04:58:18.000Z,100776
2019-05-06T05:00:19.000Z,100775
2019-05-06T05:02:33.000Z,100772
2019-05-06T05:03:33.000Z,100771
2019-05-06T05:05:03.000Z,100771
2019-05-06T05:07:33.000Z,100774
2019-05-06T05:08:33.000Z,100774
2019-05-06T05:09:33.000Z,100770
2019-05-06T05:11:33.000Z,100770
2019-05-06T05:13:18.000Z,100771
2019-05-06T05:14:18.000Z,100774
2019-05-06T05:16:33.000Z,100775
2019-05-06T05:17:33.000Z,100773
2019-05-06T05:19:33.000Z,100779
2019-05-06T05:21:33.000Z,100780
2019-05-06T05:22:33.000Z,100774
2019-05-06T05:24:03.000Z,100774
2019-05-06T05:25:33.000Z,100777
2019-05-06T05:27:33.000Z,100783
2019-05-06T05:29:33.000Z,100789
2019-05-06T05:30:33.000Z,100782
2019-05-06T05:32:18.000Z,100784
2019-05-06T05:33:33.000Z,100784
2019-05-06T05:35:18.000Z,100784
2019-05-06T05:36:33.000Z,100783
2019-05-06T05:38:33.000Z,100788
2019-05-06T05:40:18.000Z,100784
2019-05-06T05:41:33.000Z,100785
2019-05-06T05:43:18.000Z,100787
2019-05-06T05:44:33.000Z,100789
2019-05-06T05:45:33.000Z,100787
2019-05-06T05:46:33.000Z,100790
2019-05-06T05:48:33.000Z,100798
2019-05-06T05:50:33.000Z,100785
2019-05-06T05:51:33.000Z,100795
2019-05-06T05:53:18.000Z,100791
2019-05-06T05:54:33.000Z,100793
2019-05-06T05:56:33.000Z,100794
2019-05-06T05:57:33.000Z,100794
2019-05-06T05:59:33.000Z,100794
2019-05-06T06:01:03.000Z,100793
2019-05-06T06:03:06.000Z,100799
2019-05-06T06:04:33.000Z,100791
2019-05-06T06:06:33.000Z,100801
2019-05-06T06:08:18.000Z,100795
2019-05-06T06:10:33.000Z,100794
2019-05-06T06:12:18.000Z,100802
2019-05-06T06:13:33.000Z,100789
2019-05-06T06:15:18.000Z,100791
2019-05-06T06:16:33.000Z,100797
2019-05-06T06:18:33.000Z,100794
2019-05-06T06:19:33.000Z,100799
2019-05-06T06:21:03.000Z,100794
2019-05-06T06:22:33.000Z,100792
2019-05-06T06:23:33.000Z,100794
2019-05-06T06:25:03.000Z,100792
2019-05-06T06:26:19.000Z,100794
2019-05-06T06:27:33.000Z,100796
2019-05-06T06:29:33.000Z,100797
2019-05-06T06:30:33.000Z,100798
2019-05-06T06:32:33.000Z,100797
2019-05-06T06:34:33.000Z,100799
2019-05-06T06:36:33.000Z,100798
2019-05-06T06:37:33.000Z,100801
2019-05-06T06:38:33.000Z,100799
2019-05-06T06:40:33.000Z,100801
2019-05-06T06:42:33.000Z,100800
2019-05-06T06:43:33.000Z,100803
2019-05-06T06:44:33.000Z,100803
2019-05-06T06:46:33.000Z,100805
2019-05-06T06:48:03.000Z,100802
2019-05-06T06:49:33.000Z,100797
2019-05-06T06:51:33.000Z,100797
2019-05-06T06:53:33.000Z,100797
2019-05-06T06:54:33.000Z,100800
2019-05-06T06:55:33.000Z,100797
2019-05-06T06:57:03.000Z,100793
2019-05-06T06:58:33.000Z,100793
2019-05-06T07:00:03.000Z,100797
2019-05-06T07:02:33.000Z,100795
2019-05-06T07:04:03.000Z,100797
2019-05-06T07:05:18.000Z,100797
2019-05-06T07:07:33.000Z,100791
2019-05-06T07:09:33.000Z,100792
2019-05-06T07:11:33.000Z,100788
2019-05-06T07:13:18.000Z,100796
2019-05-06T07:14:33.000Z,100788
2019-05-06T07:16:18.000Z,100791
2019-05-06T07:17:33.000Z,100798
2019-05-06T07:18:33.000Z,100792
2019-05-06T07:20:03.000Z,100793
2019-05-06T07:21:03.000Z,100790
2019-05-06T07:22:21.000Z,100795
2019-05-06T07:24:33.000Z,100794
2019-05-06T07:25:33.000Z,100799
2019-05-06T07:27:33.000Z,100787
2019-05-06T07:29:03.000Z,100781
2019-05-06T07:30:33.000Z,100784
2019-05-06T07:32:18.000Z,100785
2019-05-06T07:33:33.000Z,100783
2019-05-06T07:35:03.000Z,100777
2019-05-06T07:36:18.000Z,100780
2019-05-06T07:38:33.000Z,100784
2019-05-06T07:40:33.000Z,100781
2019-05-06T07:42:33.000Z,100783
2019-05-06T07:43:33.000Z,100779
2019-05-06T07:45:06.000Z,100787
2019-05-06T07:46:33.000Z,100785
2019-05-06T07:48:33.000Z,100782
2019-05-06T07:49:33.000Z,100786
2019-05-06T07:51:33.000Z,100794
2019-05-06T07:52:33.000Z,100787
2019-05-06T07:54:33.000Z,100794
2019-05-06T07:55:33.000Z,100786
2019-05-06T07:57:33.000Z,100794
2019-05-06T07:59:33.000Z,100792
2019-05-06T08:00:33.000Z,100793
2019-05-06T08:02:33.000Z,100790
2019-05-06T08:04:33.000Z,100797
2019-05-06T08:06:33.000Z,100789
2019-05-06T08:07:33.000Z,100788
2019-05-06T08:09:03.000Z,100789
2019-05-06T08:10:33.000Z,100791
2019-05-06T08:12:33.000Z,100793
2019-05-06T08:14:33.000Z,100797
2019-05-06T08:16:33.000Z,100791
2019-05-06T08:17:33.000Z,100782
2019-05-06T08:18:33.000Z,100783
2019-05-06T08:20:33.000Z,100785
2019-05-06T08:21:33.000Z,100788
2019-05-06T08:23:18.000Z,100780
2019-05-06T08:24:33.000Z,100781
2019-05-06T08:25:33.000Z,100779
2019-05-06T08:27:33.000Z,100772
2019-05-06T08:29:33.000Z,100777
2019-05-06T08:31:33.000Z,100778
2019-05-06T08:33:33.000Z,100780
2019-05-06T08:35:33.000Z,100779
2019-05-06T08:37:33.000Z,100779
2019-05-06T08:38:33.000Z,100777
2019-05-06T08:40:33.000Z,100769
2019-05-06T08:41:33.000Z,100769
2019-05-06T08:43:33.000Z,100768
2019-05-06T08:45:03.000Z,100767
2019-05-06T08:46:33.000Z,100775
2019-05-06T08:47:33.000Z,100772
2019-05-06T08:48:33.000Z,100771
2019-05-06T08:50:33.000Z,100769
2019-05-06T08:52:33.000Z,100765
2019-05-06T08:54:33.000Z,100768
2019-05-06T08:56:33.000Z,100764
2019-05-06T08:57:33.000Z,100772
2019-05-06T08:58:33.000Z,100773
2019-05-06T09:00:33.000Z,100769
2019-05-06T09:02:33.000Z,100769
2019-05-06T09:04:11.000Z,100763
2019-05-06T09:05:33.000Z,100766
2019-05-06T09:07:33.000Z,100762
2019-05-06T09:09:33.000Z,100758
2019-05-06T09:10:33.000Z,100762
2019-05-06T09:12:33.000Z,100760
2019-05-06T09:13:33.000Z,100760
2019-05-06T09:14:33.000Z,100764
2019-05-06T09:16:33.000Z,100764
2019-05-06T09:18:33.000Z,100761
2019-05-06T09:20:33.000Z,100754
2019-05-06T09:21:33.000Z,100751
2019-05-06T09:25:19.000Z,100753
2019-05-06T09:26:49.000Z,100749
2019-05-06T09:28:19.000Z,100737
2019-05-06T09:29:19.000Z,100746
2019-05-06T09:31:19.000Z,100736
2019-05-06T09:33:06.000Z,100740
2019-05-06T09:34:19.000Z,100745
2019-05-06T09:36:19.000Z,100741
2019-05-06T09:38:04.000Z,100738
2019-05-06T09:39:19.000Z,100736
2019-05-06T09:41:04.000Z,100740
2019-05-06T09:43:06.000Z,100747
2019-05-06T09:44:19.000Z,100747
2019-05-06T09:46:04.000Z,100739
2019-05-06T09:47:19.000Z,100748
2019-05-06T09:49:19.000Z,100745
2019-05-06T09:51:19.000Z,100752
2019-05-06T09:53:19.000Z,100749
2019-05-06T09:54:19.000Z,100742
2019-05-06T09:55:49.000Z,100743
2019-05-06T09:57:19.000Z,100740
2019-05-06T09:59:19.000Z,100729
2019-05-06T10:01:19.000Z,100735
2019-05-06T10:03:07.000Z,100729
2019-05-06T10:04:49.000Z,100729
2019-05-06T10:06:19.000Z,100730
2019-05-06T10:08:19.000Z,100737
2019-05-06T10:09:49.000Z,100727
2019-05-06T10:10:49.000Z,100737
2019-05-06T10:12:19.000Z,100730
2019-05-06T10:13:19.000Z,100734
2019-05-06T10:15:19.000Z,100731
2019-05-06T10:16:52.000Z,100726
2019-05-06T10:19:07.000Z,100740
2019-05-06T10:20:19.000Z,100737
2019-05-06T10:22:19.000Z,100731
2019-05-06T10:24:19.000Z,100732
2019-05-06T10:26:07.000Z,100729
2019-05-06T10:28:04.000Z,100734
2019-05-06T10:30:06.000Z,100735
2019-05-06T10:31:19.000Z,100736
2019-05-06T10:33:19.000Z,100725
2019-05-06T10:34:19.000Z,100732
2019-05-06T10:36:19.000Z,100731
2019-05-06T10:38:04.000Z,100729
2019-05-06T10:39:19.000Z,100730
2019-05-06T10:41:03.000Z,100735
2019-05-06T10:43:07.000Z,100729
2019-05-06T10:45:19.000Z,100730
2019-05-06T10:47:19.000Z,100725
2019-05-06T10:49:19.000Z,100724
2019-05-06T10:50:49.000Z,100729
2019-05-06T11:34:02.000Z,100714
2019-05-06T11:35:03.000Z,100703
2019-05-06T11:36:33.000Z,100718
2019-05-06T11:38:33.000Z,100710
2019-05-06T11:40:34.000Z,100722
2019-05-06T11:41:34.000Z,100718
2019-05-06T11:43:33.000Z,100713
2019-05-06T11:44:34.000Z,100711
2019-05-06T11:46:33.000Z,100717
2019-05-06T11:47:34.000Z,100717
2019-05-06T11:49:18.000Z,100713
2019-05-06T11:51:33.000Z,100710
2019-05-06T11:52:33.000Z,100712
2019-05-06T11:54:04.000Z,100709
2019-05-06T11:55:18.000Z,100707
2019-05-06T11:57:18.000Z,100704
2019-05-06T11:58:19.000Z,100709
2019-05-06T11:59:34.000Z,100716
2019-05-06T12:01:34.000Z,100709
2019-05-06T12:02:34.000Z,100711
2019-05-06T12:04:18.000Z,100714
2019-05-06T12:05:33.000Z,100719
2019-05-06T12:07:04.000Z,100713
2019-05-06T12:08:08.000Z,100717
2019-05-06T12:10:18.000Z,100734
2019-05-06T12:11:33.000Z,100725
2019-05-06T12:13:33.000Z,100719
2019-05-06T12:15:04.000Z,100715
2019-05-06T12:16:33.000Z,100722
2019-05-06T12:17:34.000Z,100715
2019-05-06T12:19:33.000Z,100736
2019-05-06T12:21:11.000Z,100737
2019-05-06T12:22:33.000Z,100737
2019-05-06T12:24:33.000Z,100739
2019-05-06T12:26:18.000Z,100741
2019-05-06T12:27:33.000Z,100750
2019-05-06T12:29:33.000Z,100746
2019-05-06T12:31:33.000Z,100753
2019-05-06T12:32:33.000Z,100746
2019-05-06T12:33:33.000Z,100747
2019-05-06T12:35:33.000Z,100746
2019-05-06T12:36:33.000Z,100744
2019-05-06T12:38:03.000Z,100740
2019-05-06T12:39:21.000Z,100744
2019-05-06T12:40:33.000Z,100748
2019-05-06T12:41:33.000Z,100741
2019-05-06T12:43:18.000Z,100739
2019-05-06T12:44:33.000Z,100737
2019-05-06T12:46:33.000Z,100739
2019-05-06T12:48:33.000Z,100740
2019-05-06T12:49:33.000Z,100739
2019-05-06T12:51:33.000Z,100739
2019-05-06T12:53:33.000Z,100743
2019-05-06T12:55:03.000Z,100731
2019-05-06T12:56:33.000Z,100737
2019-05-06T12:57:33.000Z,100746
2019-05-06T12:59:33.000Z,100737
2019-05-06T13:00:33.000Z,100738
2019-05-06T13:02:33.000Z,100732
2019-05-06T13:03:33.000Z,100735
2019-05-06T13:05:18.000Z,100727
2019-05-06T13:07:33.000Z,100728
2019-05-06T13:09:03.000Z,100715
2019-05-06T13:10:33.000Z,100716
2019-05-06T13:12:19.000Z,100714
2019-05-06T13:14:03.000Z,100705
2019-05-06T13:15:03.000Z,100711
2019-05-06T13:16:33.000Z,100704
2019-05-06T13:18:03.000Z,100701
2019-05-06T13:19:33.000Z,100697
2019-05-06T13:20:33.000Z,100693
2019-05-06T13:22:18.000Z,100700
2019-05-06T13:24:19.000Z,100686
2019-05-06T13:26:33.000Z,100692
2019-05-06T13:27:33.000Z,100695
2019-05-06T13:28:33.000Z,100698
2019-05-06T13:30:33.000Z,100684
2019-05-06T13:32:33.000Z,100683
2019-05-06T13:34:03.000Z,100682
2019-05-06T13:35:33.000Z,100687
2019-05-06T13:36:33.000Z,100688
2019-05-06T13:38:33.000Z,100698
2019-05-06T13:40:18.000Z,100684
2019-05-06T13:41:33.000Z,100696
2019-05-06T13:42:33.000Z,100690
2019-05-06T13:44:33.000Z,100688
2019-05-06T13:46:03.000Z,100686
2019-05-06T13:47:33.000Z,100681
2019-05-06T13:48:33.000Z,100688
2019-05-06T13:49:33.000Z,100689
2019-05-06T13:51:18.000Z,100684
2019-05-06T13:53:08.000Z,100678
2019-05-06T13:54:33.000Z,100676
2019-05-06T13:56:03.000Z,100672
2019-05-06T13:57:33.000Z,100681
2019-05-06T13:58:33.000Z,100675
2019-05-06T14:00:33.000Z,100670
2019-05-06T14:01:33.000Z,100671
2019-05-06T14:03:33.000Z,100673
2019-05-06T14:04:33.000Z,100675
2019-05-06T14:05:33.000Z,100673
2019-05-06T14:06:33.000Z,100672
2019-05-06T14:08:19.000Z,100675
2019-05-06T14:11:39.000Z,100669
2019-05-06T14:12:56.000Z,100664
2019-05-06T14:14:57.000Z,100656
2019-05-06T14:16:56.000Z,100660
2019-05-06T14:18:56.000Z,100661
2019-05-06T14:20:56.000Z,100659
2019-05-06T14:22:57.000Z,100661
2019-05-06T14:24:10.000Z,100660
2019-05-06T14:25:40.000Z,100659
2019-05-06T14:26:58.000Z,100652
2019-05-06T14:28:40.000Z,100651
2019-05-06T14:29:56.000Z,100659
2019-05-06T14:30:57.000Z,100653
2019-05-06T14:32:57.000Z,100661
2019-05-06T14:34:58.000Z,100655
2019-05-06T14:36:41.000Z,100659
2019-05-06T14:37:57.000Z,100665
2019-05-06T14:38:57.000Z,100658
2019-05-06T14:40:56.000Z,100657
2019-05-06T14:42:57.000Z,100660
2019-05-06T14:44:58.000Z,100653
2019-05-06T14:46:57.000Z,100650
2019-05-06T14:48:41.000Z,100656
2019-05-06T15:31:53.000Z,100655
2019-05-06T15:33:24.000Z,100652
2019-05-06T15:34:39.000Z,100649
2019-05-06T15:36:39.000Z,100653
2019-05-06T15:38:39.000Z,100651
2019-05-06T15:40:09.000Z,100648
2019-05-06T15:41:39.000Z,100648
2019-05-06T15:42:39.000Z,100649
2019-05-06T15:44:24.000Z,100650
2019-05-06T15:45:24.000Z,100650
2019-05-06T15:46:39.000Z,100647
2019-05-06T15:48:39.000Z,100647
2019-05-06T15:50:39.000Z,100645
2019-05-06T15:52:39.000Z,100640
2019-05-06T15:53:39.000Z,100646
2019-05-06T15:54:39.000Z,100642
2019-05-06T15:56:39.000Z,100643
2019-05-06T15:58:39.000Z,100654
2019-05-06T16:00:39.000Z,100648
2019-05-06T16:02:39.000Z,100648
2019-05-06T16:04:24.000Z,100651
2019-05-06T16:06:39.000Z,100652
2019-05-06T16:08:39.000Z,100664
2019-05-06T16:10:39.000Z,100659
2019-05-06T16:12:39.000Z,100663
2019-05-06T16:14:39.000Z,100658
2019-05-06T16:16:39.000Z,100649
2019-05-06T16:17:39.000Z,100648
2019-05-06T16:19:39.000Z,100645
2019-05-06T16:21:39.000Z,100644
2019-05-06T16:23:39.000Z,100640
2019-05-06T16:25:39.000Z,100643
2019-05-06T16:27:39.000Z,100646
2019-05-06T16:29:24.000Z,100650
2019-05-06T16:30:39.000Z,100650
2019-05-06T16:32:39.000Z,100651
2019-05-06T16:34:09.000Z,100641
2019-05-06T17:17:17.000Z,100652
2019-05-06T17:18:48.000Z,100644
2019-05-06T17:20:03.000Z,100643
2019-05-06T17:21:48.000Z,100639
2019-05-06T17:24:03.000Z,100637
2019-05-06T17:25:48.000Z,100640
2019-05-06T17:26:48.000Z,100640
2019-05-06T17:28:03.000Z,100642
2019-05-06T17:29:03.000Z,100640
2019-05-06T17:30:48.000Z,100638
2019-05-06T17:33:03.000Z,100640
2019-05-06T17:34:48.000Z,100639
2019-05-06T17:36:03.000Z,100639
2019-05-06T17:37:33.000Z,100635
2019-05-06T17:39:03.000Z,100634
2019-05-06T17:40:03.000Z,100639
2019-05-06T17:41:33.000Z,100626
2019-05-06T17:43:03.000Z,100627
2019-05-06T17:45:03.000Z,100626
2019-05-06T17:46:48.000Z,100628
2019-05-06T17:48:03.000Z,100626
2019-05-06T17:49:03.000Z,100627
2019-05-06T17:51:03.000Z,100621
2019-05-06T17:53:03.000Z,100628
2019-05-06T17:54:48.000Z,100630
2019-05-06T17:56:03.000Z,100626
2019-05-06T17:57:48.000Z,100623
2019-05-06T17:59:33.000Z,100621
2019-05-06T18:01:03.000Z,100624
2019-05-06T18:02:03.000Z,100627
2019-05-06T18:04:03.000Z,100631
2019-05-06T18:06:03.000Z,100623
2019-05-06T18:07:03.000Z,100612
2019-05-06T18:08:03.000Z,100618
2019-05-06T18:09:03.000Z,100626
2019-05-06T18:11:03.000Z,100613
2019-05-06T18:12:48.000Z,100617
2019-05-06T18:14:03.000Z,100620
2019-05-06T18:16:03.000Z,100618
2019-05-06T18:18:03.000Z,100621
2019-05-06T18:19:48.000Z,100615
2019-05-06T18:22:03.000Z,100618
2019-05-06T18:23:48.000Z,100614
2019-05-06T18:26:03.000Z,100625
2019-05-06T18:27:03.000Z,100627
2019-05-06T18:29:03.000Z,100626
2019-05-06T18:30:03.000Z,100626
2019-05-06T18:32:03.000Z,100626
2019-05-06T18:33:03.000Z,100617
2019-05-06T18:35:03.000Z,100617
2019-05-06T18:37:03.000Z,100620
2019-05-06T18:38:03.000Z,100619
2019-05-06T18:39:49.000Z,100610
2019-05-06T18:41:03.000Z,100615
2019-05-06T18:42:03.000Z,100617
2019-05-06T18:44:03.000Z,100618
2019-05-06T18:45:03.000Z,100610
2019-05-06T18:46:03.000Z,100616
2019-05-06T18:47:47.000Z,100614
2019-05-06T18:49:48.000Z,100620
2019-05-06T18:51:03.000Z,100621
2019-05-06T18:52:47.000Z,100621
2019-05-06T18:54:03.000Z,100625
2019-05-06T18:56:03.000Z,100627
2019-05-06T18:58:03.000Z,100623
2019-05-06T18:59:32.000Z,100624
2019-05-06T19:01:03.000Z,100627
2019-05-06T19:02:03.000Z,100625
2019-05-06T19:04:03.000Z,100630
2019-05-06T19:05:03.000Z,100625
2019-05-06T19:06:47.000Z,100626
2019-05-06T19:08:03.000Z,100632
2019-05-06T19:10:03.000Z,100634
2019-05-06T19:11:32.000Z,100639
2019-05-06T19:14:03.000Z,100631
2019-05-06T19:15:03.000Z,100637
2019-05-06T19:16:33.000Z,100634
2019-05-06T19:18:03.000Z,100643
2019-05-06T19:19:03.000Z,100635
2019-05-06T19:20:48.000Z,100641
2019-05-06T19:23:03.000Z,100649
2019-05-06T19:24:32.000Z,100645
2019-05-06T19:25:33.000Z,100638
2019-05-06T19:27:03.000Z,100645
2019-05-06T19:28:03.000Z,100645
2019-05-06T19:29:48.000Z,100649
2019-05-06T19:31:03.000Z,100654
2019-05-06T19:32:33.000Z,100652
2019-05-06T19:33:49.000Z,100655
2019-05-06T19:34:49.000Z,100655
2019-05-06T19:35:51.000Z,100657
2019-05-06T19:38:03.000Z,100653
2019-05-06T19:40:03.000Z,100658
2019-05-06T19:41:03.000Z,100659
2019-05-06T19:42:33.000Z,100655
2019-05-06T19:44:03.000Z,100658
2019-05-06T19:45:03.000Z,100657
2019-05-06T19:47:03.000Z,100655
2019-05-06T19:49:03.000Z,100656
2019-05-06T19:50:03.000Z,100657
2019-05-06T19:52:03.000Z,100662
2019-05-06T19:53:03.000Z,100662
2019-05-06T19:55:03.000Z,100664
2019-05-06T19:56:03.000Z,100664
2019-05-06T19:58:03.000Z,100670
2019-05-06T20:00:03.000Z,100661
2019-05-06T20:01:03.000Z,100658
2019-05-06T20:03:03.000Z,100660
2019-05-06T20:04:48.000Z,100663
2019-05-06T20:06:03.000Z,100665
2019-05-06T20:08:03.000Z,100663
2019-05-06T20:09:48.000Z,100661
2019-05-06T20:11:03.000Z,100663
2019-05-06T20:12:03.000Z,100660
2019-05-06T20:14:03.000Z,100662
2019-05-06T20:15:03.000Z,100663
2019-05-06T20:16:03.000Z,100670
2019-05-06T20:18:03.000Z,100665
2019-05-06T20:19:33.000Z,100663
2019-05-06T20:20:33.000Z,100662
2019-05-06T20:22:03.000Z,100661
2019-05-06T20:24:03.000Z,100663
2019-05-06T20:25:33.000Z,100666
2019-05-06T20:27:03.000Z,100661
2019-05-06T20:28:03.000Z,100661
2019-05-06T20:29:33.000Z,100669
2019-05-06T20:31:03.000Z,100664
2019-05-06T20:32:03.000Z,100664
2019-05-06T20:33:03.000Z,100665
2019-05-06T20:34:48.000Z,100656
2019-05-06T20:36:03.000Z,100656
2019-05-06T20:37:03.000Z,100655
2019-05-06T20:38:48.000Z,100657
2019-05-06T20:40:03.000Z,100660
2019-05-06T20:42:03.000Z,100655
2019-05-06T20:44:03.000Z,100656
2019-05-06T20:45:03.000Z,100657
2019-05-06T20:47:03.000Z,100656
2019-05-06T20:48:03.000Z,100663
2019-05-06T20:50:03.000Z,100663
2019-05-06T20:52:03.000Z,100669
2019-05-06T20:54:03.000Z,100666
2019-05-06T20:55:03.000Z,100663
2019-05-06T20:56:48.000Z,100664
2019-05-06T20:58:03.000Z,100661
2019-05-06T21:00:03.000Z,100666
2019-05-06T21:02:03.000Z,100672
2019-05-06T21:03:03.000Z,100670
2019-05-06T21:04:03.000Z,100672
2019-05-06T21:05:03.000Z,100666
2019-05-06T21:07:03.000Z,100672
2019-05-06T21:09:03.000Z,100676
2019-05-06T21:10:48.000Z,100684
2019-05-06T21:13:03.000Z,100685
2019-05-06T21:15:03.000Z,100681
2019-05-06T21:16:03.000Z,100680
2019-05-06T21:18:03.000Z,100685
2019-05-06T21:20:03.000Z,100687
2019-05-06T21:21:03.000Z,100686
2019-05-06T21:22:48.000Z,100683
2019-05-06T21:24:03.000Z,100686
2019-05-06T21:26:03.000Z,100683
2019-05-06T21:27:03.000Z,100682
2019-05-06T21:28:32.000Z,100680
2019-05-06T21:30:03.000Z,100674
2019-05-06T21:31:03.000Z,100678
2019-05-06T21:33:03.000Z,100671
2019-05-06T21:34:03.000Z,100676
2019-05-06T21:35:48.000Z,100679
2019-05-06T21:37:03.000Z,100676
2019-05-06T21:39:03.000Z,100679
2019-05-06T21:41:03.000Z,100675
2019-05-06T21:43:03.000Z,100675
2019-05-06T21:45:03.000Z,100680
2019-05-06T21:47:03.000Z,100668
2019-05-06T21:49:03.000Z,100675
2019-05-06T21:51:03.000Z,100679
2019-05-06T21:52:03.000Z,100676
2019-05-06T21:54:03.000Z,100677
2019-05-06T21:56:03.000Z,100668
2019-05-06T21:58:03.000Z,100671
2019-05-06T21:59:03.000Z,100671
2019-05-06T22:01:03.000Z,100671
2019-05-06T22:03:03.000Z,100675
2019-05-06T22:04:03.000Z,100673
2019-05-06T22:06:03.000Z,100668
2019-05-06T22:07:03.000Z,100672
2019-05-06T22:09:03.000Z,100677
2019-05-06T22:10:03.000Z,100672
2019-05-06T22:11:48.000Z,100674
2019-05-06T22:13:03.000Z,100674
2019-05-06T22:15:03.000Z,100674
2019-05-06T22:17:03.000Z,100670
2019-05-06T22:18:03.000Z,100669